Marianna, AR

1:38 PM CDT on April 19, 2015 (GMT -0500)
marianna,arrkansas | | Change Station
CLOSE
Current Station
Personal Weather Station
Location: Marianna, AR
Elevation: 230 ft
Nearby Weather Stations
Active Advisory: Flood Advisory

Elev 230 ft 34.77 °N, 90.77 °W | Updated 6 minutes ago

Overcast
Overcast
73.6 °F
Feels Like 73 °F
N
4.7
Wind Variable Wind from SW

Today
High -- | Low -- °F
--% Chance of Precip.
Yesterday
High -- | Low -- °F
Precip. -- in
6:26 AM 7:38 PM
New Moon, 1% visible
Pressure 29.69 in
Visibility 10.0 miles
Clouds Mostly Cloudy 600 ft
Mostly Cloudy 900 ft
Mostly Cloudy 1300 ft
Heat Index 73 °F
Dew Point 68 °F
Humidity 82%
Rainfall 0.86 in
Snow Depth Not available.
UV 6 out of 12
Pollen 8.10 out of 12
Air Quality Not available.
Flu Activity Sporadic
METAR KUTA 191835Z AUTO 26012KT 10SM BKN006 BKN009 BKN013 20/18 A2969 RMK AO2

More Conditions Fewer Conditions

Pressure 29.69 in
Visibility 10.0 miles
Clouds Mostly Cloudy 600 ft
Mostly Cloudy 900 ft
Mostly Cloudy 1300 ft
Heat Index 73 °F
Dew Point 68 °F
Humidity 82%
Rainfall 0.86 in
Snow Depth Not available.
UV 6 out of 12
Pollen 8.10 out of 12
Air Quality Not available.
Flu Activity Sporadic
METAR KUTA 191835Z AUTO 26012KT 10SM BKN006 BKN009 BKN013 20/18 A2969 RMK AO2

More Conditions Fewer Conditions

10-Day Weather Forecast

Almanac

Astronomy

Apr. 19, 2015 Rise Set
Actual Time
Civil Twilight
Nautical Twilight
Astronomical Twilight
Moon
Length of Visible Light
Length of Day
Tomorrow will be .
, % of the Moon is Illuminated

Today's Extremes

State Highs State Lows

Community

WunderPhotos

Upload Photos

1,814,900 photos uploaded!

WunderBlogs® & News

Nearby

Air Quality

  Air Quality AQ Index Pollutant
Not available.

Snow Depth

Station Depth Elevation

Earthquake Activity

City Distance Mag. Time & Date
Minimum magnitude displayed is 2.5.

Coastal Water Temperatures

Place Temperature

Stations

Nearby Weather Stations

Station Location Temp. Windchill Dew Point Humidity Wind Precip. Elev Updated Type
                   
Flood Advisory
Statement as of 11:53 AM CDT on April 19, 2015

The National Weather Service in Memphis TN has issued a
* Flood Advisory for
the Mississippi River at Tunica Riverpark
* from Sunday April 19 until Thursday April 23.
* At 10 am Sunday the stage was 38.9 feet.
* Flood stage is 41.0 feet.
* Forecast... the river will rise to near 39.5 feet Saturday April 25.
* At 40.0 feet... casinos are open and unaffected. In Mississippi,
roads to hunting camps in the Duck Lake and Flower Lake areas are
flooded. South evacuation Road from Bordeaux Island is flooded. In
Arkansas, Road to fields inside the levee south of Horseshoe Lake
are covered.


Lat... Lon 3491 9062 3491 9022 3480 9034 3450 9051
      3455 9059 3476 9074